createdAt,value
2019-05-29T00:01:18.514Z,99.90
2019-05-29T00:03:43.539Z,99.90
2019-05-29T00:06:12.546Z,99.90
2019-05-29T00:58:17.091Z,99.90
2019-05-29T01:00:46.272Z,99.90
2019-05-29T01:03:15.861Z,99.90
2019-05-29T01:05:44.983Z,99.90
2019-05-29T01:08:14.514Z,99.90
2019-05-29T01:10:43.704Z,99.90
2019-05-29T01:13:13.164Z,99.90
2019-05-29T01:15:42.355Z,99.90
2019-05-29T01:18:11.723Z,99.90
2019-05-29T01:20:40.801Z,99.90
2019-05-29T01:23:09.816Z,99.90
2019-05-29T01:25:38.777Z,99.90
2019-05-29T01:28:08.096Z,99.90
2019-05-29T01:30:37.158Z,99.90
2019-05-29T01:33:06.180Z,99.90
2019-05-29T01:35:35.132Z,99.90
2019-05-29T01:38:04.088Z,99.90
2019-05-29T01:40:33.024Z,99.90
2019-05-29T01:43:01.913Z,99.90
2019-05-29T01:45:30.788Z,99.90
2019-05-29T01:47:59.744Z,99.90
2019-05-29T01:50:28.752Z,99.90
2019-05-29T01:52:57.608Z,99.90
2019-05-29T01:55:27.906Z,99.90
2019-05-29T01:57:57.329Z,99.90
2019-05-29T06:43:39.957Z,99.90
2019-05-29T06:46:08.927Z,99.90
2019-05-29T06:48:46.374Z,99.90
2019-05-29T06:51:08.664Z,99.90
2019-05-29T06:53:37.853Z,99.90
2019-05-29T06:56:07.044Z,99.90
2019-05-29T06:58:36.012Z,99.90
2019-05-29T07:01:05.049Z,99.90
2019-05-29T07:03:35.484Z,99.90
2019-05-29T07:06:04.855Z,99.90
2019-05-29T07:08:39.957Z,99.90
2019-05-29T07:11:04.915Z,99.90
2019-05-29T07:13:35.171Z,99.90
2019-05-29T07:16:04.751Z,99.90
2019-05-29T07:18:33.804Z,99.90
2019-05-29T07:21:02.771Z,99.90
2019-05-29T07:23:31.783Z,99.90
2019-05-29T07:26:00.742Z,99.90
2019-05-29T07:28:29.724Z,99.90
2019-05-29T07:31:02.610Z,99.90
2019-05-29T07:33:29.519Z,99.90
2019-05-29T07:35:58.663Z,99.90
2019-05-29T07:38:28.056Z,99.90
2019-05-29T07:40:57.019Z,99.90
2019-05-29T07:43:26.059Z,99.90
2019-05-29T07:45:55.103Z,99.90
2019-05-29T07:48:24.235Z,99.90
2019-05-29T07:51:06.384Z,99.90
2019-05-29T07:55:52.439Z,99.90
2019-05-29T07:58:21.485Z,99.90
2019-05-29T08:03:20.844Z,99.90
2019-05-29T08:05:52.654Z,99.90
2019-05-29T08:08:20.677Z,99.90
2019-05-29T08:10:49.809Z,99.90
2019-05-29T08:13:18.971Z,99.90
2019-05-29T08:16:00.948Z,99.90
2019-05-29T08:18:18.688Z,99.90
2019-05-29T08:20:48.164Z,99.90
2019-05-29T08:23:17.279Z,99.90
2019-05-29T08:25:47.500Z,99.90
2019-05-29T08:28:16.893Z,99.90
2019-05-29T08:30:51.657Z,99.90
2019-05-29T08:33:16.517Z,99.90
2019-05-29T08:35:47.078Z,99.90
2019-05-29T08:38:16.245Z,99.90
2019-05-29T08:40:45.608Z,99.90
2019-05-29T08:43:14.552Z,99.90
2019-05-29T08:45:43.580Z,99.90
2019-05-29T08:48:12.557Z,99.90
2019-05-29T08:50:41.624Z,99.90
2019-05-29T08:53:10.621Z,99.90
2019-05-29T08:55:40.112Z,99.90
2019-05-29T08:58:09.453Z,99.90
2019-05-29T09:00:38.549Z,99.90
2019-05-29T09:03:08.046Z,99.90
2019-05-29T09:05:37.113Z,99.90
2019-05-29T09:08:06.099Z,99.90
2019-05-29T09:10:35.326Z,99.90
2019-05-29T09:13:05.351Z,99.90
2019-05-29T09:15:34.631Z,99.90
2019-05-29T09:18:03.705Z,99.90
2019-05-29T09:20:57.804Z,99.90
2019-05-29T09:23:03.705Z,99.90
2019-05-29T09:25:32.705Z,99.90
2019-05-29T09:28:01.595Z,99.90
2019-05-29T09:30:30.633Z,99.90
2019-05-29T09:32:59.513Z,99.10
2019-05-29T09:35:28.558Z,99.90
2019-05-29T09:37:57.902Z,98.40
2019-05-29T09:40:26.900Z,98.50
2019-05-29T09:42:55.795Z,97.80
2019-05-29T09:45:25.554Z,97.00
2019-05-29T09:47:54.694Z,97.20
2019-05-29T09:50:26.006Z,98.20
2019-05-29T09:52:56.749Z,96.90
2019-05-29T09:55:26.278Z,96.90
2019-05-29T09:57:55.711Z,96.40
2019-05-29T10:00:26.318Z,95.80
2019-05-29T10:02:55.607Z,95.10
2019-05-29T10:05:24.814Z,94.70
2019-05-29T10:07:55.052Z,93.90
2019-05-29T10:10:24.899Z,94.00
2019-05-29T10:12:55.345Z,93.30
2019-05-29T10:15:24.827Z,93.10
2019-05-29T10:17:55.336Z,92.50
2019-05-29T10:20:25.188Z,92.10
2019-05-29T10:22:55.493Z,92.20
2019-05-29T10:25:24.692Z,91.40
2019-05-29T10:27:53.779Z,91.70
2019-05-29T10:30:24.955Z,91.30
2019-05-29T10:32:53.949Z,90.90
2019-05-29T10:35:22.940Z,91.20
2019-05-29T10:37:53.637Z,90.90
2019-05-29T10:40:22.739Z,90.80
2019-05-29T10:42:51.769Z,89.10
2019-05-29T10:45:21.252Z,91.80
2019-05-29T10:47:52.194Z,90.60
2019-05-29T10:50:21.627Z,90.90
2019-05-29T10:52:50.606Z,90.90
2019-05-29T10:55:22.783Z,91.20
2019-05-29T10:57:53.099Z,90.40
2019-05-29T11:00:22.543Z,90.60
2019-05-29T11:02:54.721Z,90.30
2019-05-29T11:05:22.423Z,91.10
2019-05-29T11:07:51.925Z,90.10
2019-05-29T11:10:21.232Z,88.80
2019-05-29T11:12:50.761Z,88.60
2019-05-29T11:15:22.071Z,88.30
2019-05-29T11:17:51.505Z,88.80
2019-05-29T11:20:21.510Z,87.00
2019-05-29T11:22:51.654Z,85.80
2019-05-29T11:25:24.879Z,83.80
2019-05-29T11:27:53.061Z,84.80
2019-05-29T11:30:22.800Z,82.40
2019-05-29T11:32:54.651Z,79.10
2019-05-29T11:35:22.632Z,75.60
2019-05-29T11:37:52.495Z,77.60
2019-05-29T11:40:21.753Z,76.30
2019-05-29T11:42:51.141Z,80.40
2019-05-29T11:45:20.600Z,79.40
2019-05-29T11:47:51.360Z,80.60
2019-05-29T11:50:21.474Z,79.70
2019-05-29T11:52:50.451Z,79.00
2019-05-29T11:55:19.810Z,80.10
2019-05-29T11:57:48.762Z,79.40
2019-05-29T12:00:20.585Z,79.80
2019-05-29T12:02:49.101Z,79.70
2019-05-29T12:05:18.713Z,79.20
2019-05-29T12:07:47.604Z,79.40
2019-05-29T12:10:16.917Z,80.80
2019-05-29T12:12:45.914Z,80.70
2019-05-29T12:15:18.695Z,81.90
2019-05-29T12:17:47.861Z,81.90
2019-05-29T12:20:27.645Z,82.30
2019-05-29T12:23:10.917Z,82.40
2019-05-29T12:25:18.784Z,82.00
2019-05-29T12:27:47.890Z,82.30
2019-05-29T12:30:18.579Z,81.40
2019-05-29T12:32:47.642Z,79.70
2019-05-29T12:35:16.915Z,79.40
2019-05-29T12:37:45.935Z,78.70
2019-05-29T12:40:15.663Z,78.40
2019-05-29T12:42:45.270Z,78.40
2019-05-29T12:45:14.707Z,78.40
2019-05-29T12:47:44.086Z,79.30
2019-05-29T12:50:15.041Z,79.70
2019-05-29T12:52:44.010Z,77.80
2019-05-29T12:55:13.243Z,79.30
2019-05-29T12:57:42.222Z,79.60
2019-05-29T13:00:12.315Z,79.90
2019-05-29T13:02:41.343Z,80.90
2019-05-29T13:05:19.351Z,81.20
2019-05-29T13:07:42.148Z,80.20
2019-05-29T13:10:27.234Z,82.00
2019-05-29T13:12:43.490Z,81.80
2019-05-29T13:15:13.714Z,82.70
2019-05-29T13:17:42.744Z,83.00
2019-05-29T13:20:21.194Z,81.60
2019-05-29T13:22:44.439Z,81.60
2019-05-29T13:25:15.014Z,81.30
2019-05-29T13:27:43.974Z,80.80
2019-05-29T13:30:14.842Z,82.00
2019-05-29T13:32:43.977Z,82.30
2019-05-29T13:35:13.669Z,80.90
2019-05-29T13:37:42.649Z,80.50
2019-05-29T13:40:12.747Z,80.40
2019-05-29T13:42:42.020Z,80.10
2019-05-29T13:45:17.863Z,80.80
2019-05-29T13:47:42.147Z,80.40
2019-05-29T13:50:12.631Z,81.20
2019-05-29T13:52:42.086Z,79.90
2019-05-29T13:55:12.986Z,77.60
2019-05-29T13:57:42.272Z,77.80
2019-05-29T14:00:33.728Z,79.70
2019-05-29T14:02:44.208Z,77.20
2019-05-29T14:05:14.416Z,78.70
2019-05-29T14:07:43.661Z,79.70
2019-05-29T14:10:12.953Z,77.30
2019-05-29T14:12:41.980Z,78.60
2019-05-29T14:15:12.392Z,80.80
2019-05-29T14:17:41.676Z,77.30
2019-05-29T14:20:11.420Z,78.20
2019-05-29T14:22:40.789Z,78.00
2019-05-29T14:25:11.645Z,77.10
2019-05-29T14:27:40.793Z,77.10
2019-05-29T14:30:11.104Z,77.40
2019-05-29T14:32:40.468Z,78.10
2019-05-29T14:35:11.161Z,78.70
2019-05-29T14:37:40.985Z,78.50
2019-05-29T14:40:12.219Z,79.10
2019-05-29T14:42:41.393Z,79.80
2019-05-29T14:45:12.366Z,78.90
2019-05-29T14:47:41.709Z,79.70
2019-05-29T14:50:13.125Z,79.10
2019-05-29T14:52:42.059Z,79.60
2019-05-29T14:55:17.401Z,78.90
2019-05-29T14:57:42.487Z,79.60
2019-05-29T15:00:24.349Z,78.70
2019-05-29T15:02:43.913Z,78.70
2019-05-29T15:05:14.684Z,77.80
2019-05-29T15:07:43.808Z,78.20
2019-05-29T15:10:24.850Z,77.90
2019-05-29T15:12:43.960Z,79.90
2019-05-29T15:15:16.247Z,77.90
2019-05-29T15:17:44.469Z,77.30
2019-05-29T15:20:16.829Z,76.90
2019-05-29T15:22:46.150Z,77.80
2019-05-29T15:25:23.590Z,77.50
2019-05-29T15:27:46.393Z,77.90
2019-05-29T15:30:20.769Z,79.70
2019-05-29T15:32:46.717Z,79.70
2019-05-29T15:35:18.417Z,80.10
2019-05-29T15:37:46.597Z,79.30
2019-05-29T15:40:16.934Z,80.20
2019-05-29T15:42:46.090Z,80.70
2019-05-29T15:45:16.065Z,79.80
2019-05-29T15:47:58.841Z,80.50
2019-05-29T15:50:27.978Z,80.20
2019-05-29T15:52:57.037Z,81.00
2019-05-29T15:55:33.664Z,80.20
2019-05-29T15:57:56.773Z,81.50
2019-05-29T16:00:26.132Z,83.00
2019-05-29T16:02:55.234Z,82.20
2019-05-29T16:05:24.318Z,82.50
2019-05-29T16:07:53.287Z,82.30
2019-05-29T16:10:22.527Z,81.20
2019-05-29T16:12:51.587Z,82.50
2019-05-29T16:15:21.112Z,81.90
2019-05-29T16:17:50.064Z,81.30
2019-05-29T16:20:22.696Z,82.50
2019-05-29T16:22:51.940Z,81.00
2019-05-29T16:25:38.908Z,80.80
2019-05-29T16:27:51.631Z,80.70
2019-05-29T16:30:21.915Z,81.20
2019-05-29T16:32:51.131Z,80.90
2019-05-29T16:35:20.880Z,80.50
2019-05-29T16:37:50.101Z,81.60
2019-05-29T16:40:21.870Z,81.60
2019-05-29T16:42:50.903Z,81.30
2019-05-29T16:45:20.620Z,81.80
2019-05-29T16:47:49.986Z,82.00
2019-05-29T16:50:21.087Z,82.60
2019-05-29T16:52:50.349Z,81.20
2019-05-29T16:55:19.488Z,81.80
2019-05-29T16:57:48.608Z,81.50
2019-05-29T17:00:19.830Z,82.10
2019-05-29T17:02:49.553Z,81.80
2019-05-29T17:05:20.536Z,82.00
2019-05-29T17:07:49.637Z,82.00
2019-05-29T17:10:20.457Z,80.80
2019-05-29T17:12:49.408Z,80.00
2019-05-29T17:15:18.993Z,81.00
2019-05-29T17:17:48.180Z,80.60
2019-05-29T17:20:22.642Z,81.20
2019-05-29T17:22:51.885Z,82.60
2019-05-29T17:25:25.511Z,83.10
2019-05-29T17:27:51.866Z,84.00
2019-05-29T17:30:25.098Z,81.30
2019-05-29T17:32:54.065Z,82.00
2019-05-29T17:35:23.193Z,80.90
2019-05-29T17:37:52.349Z,81.20
2019-05-29T17:40:21.550Z,82.20
2019-05-29T17:42:50.744Z,82.50
2019-05-29T17:45:23.912Z,80.90
2019-05-29T17:47:51.253Z,81.70
2019-05-29T17:50:22.914Z,81.20
2019-05-29T17:52:51.502Z,79.80
2019-05-29T17:55:22.110Z,80.50
2019-05-29T17:57:51.771Z,80.30
2019-05-29T18:00:22.497Z,80.70
2019-05-29T18:02:52.809Z,81.30
2019-05-29T18:05:22.675Z,79.30
2019-05-29T18:07:51.829Z,80.10
2019-05-29T18:10:22.786Z,80.40
2019-05-29T18:12:52.249Z,81.00
2019-05-29T18:15:21.773Z,80.90
2019-05-29T18:17:51.127Z,82.10
2019-05-29T18:20:21.589Z,82.40
2019-05-29T18:22:51.148Z,82.80
2019-05-29T18:25:20.239Z,84.40
2019-05-29T18:27:49.263Z,84.40
2019-05-29T18:30:19.947Z,83.00
2019-05-29T18:32:49.492Z,83.40
2019-05-29T18:35:19.034Z,83.70
2019-05-29T18:37:48.225Z,84.20
2019-05-29T18:40:17.682Z,84.20
2019-05-29T18:42:46.650Z,83.70
2019-05-29T18:45:20.862Z,84.20
2019-05-29T18:47:46.931Z,84.30
2019-05-29T18:50:16.299Z,85.20
2019-05-29T18:52:45.263Z,85.50
2019-05-29T18:55:15.615Z,85.50
2019-05-29T18:57:44.832Z,86.00
2019-05-29T19:00:16.288Z,86.90
2019-05-29T19:02:45.343Z,87.30
2019-05-29T19:05:14.863Z,87.30
2019-05-29T19:07:44.023Z,87.80
2019-05-29T19:10:13.577Z,87.10
2019-05-29T19:12:43.073Z,87.40
2019-05-29T19:15:13.439Z,87.80
2019-05-29T19:17:42.408Z,88.20
2019-05-29T19:20:11.793Z,88.70
2019-05-29T19:22:40.698Z,88.70
2019-05-29T19:25:10.329Z,89.00
2019-05-29T19:27:42.170Z,89.20
2019-05-29T19:30:10.797Z,89.70
2019-05-29T19:32:39.953Z,90.00
2019-05-29T19:35:09.508Z,90.00
2019-05-29T19:37:38.639Z,90.20
2019-05-29T19:40:08.208Z,90.40
2019-05-29T19:42:37.878Z,90.60
2019-05-29T19:45:07.599Z,90.70
2019-05-29T19:47:36.586Z,91.10
2019-05-29T19:50:06.047Z,91.20
2019-05-29T19:52:35.333Z,91.40
2019-05-29T19:55:05.348Z,91.50
2019-05-29T19:57:52.481Z,91.70
2019-05-29T20:00:06.157Z,91.80
2019-05-29T20:02:36.427Z,91.90
2019-05-29T20:05:06.713Z,92.10
2019-05-29T20:07:35.677Z,92.20
2019-05-29T20:10:05.433Z,92.60
2019-05-29T20:12:35.644Z,92.50
2019-05-29T20:15:05.577Z,92.60
2019-05-29T20:17:34.569Z,92.90
2019-05-29T20:20:03.737Z,93.00
2019-05-29T20:22:32.817Z,93.30
2019-05-29T20:25:01.797Z,93.40
2019-05-29T20:27:32.016Z,93.40
2019-05-29T20:30:01.281Z,93.50
2019-05-29T20:32:30.539Z,93.40
2019-05-29T20:34:59.518Z,93.40
2019-05-29T20:37:29.910Z,93.60
2019-05-29T20:39:59.065Z,93.70
2019-05-29T20:42:28.285Z,93.90
2019-05-29T20:44:57.200Z,94.10
2019-05-29T20:47:26.346Z,94.20
2019-05-29T20:49:55.246Z,94.50
2019-05-29T20:52:24.318Z,94.60
2019-05-29T20:54:53.318Z,94.70
2019-05-29T20:57:22.318Z,94.80
2019-05-29T20:59:51.307Z,94.90
2019-05-29T21:02:20.350Z,94.90
2019-05-29T21:04:49.376Z,95.00
2019-05-29T21:07:18.647Z,95.10
2019-05-29T21:09:47.750Z,95.30
2019-05-29T21:12:16.718Z,95.50
2019-05-29T21:14:45.755Z,95.70
2019-05-29T21:17:14.855Z,95.90
2019-05-29T21:19:44.716Z,96.00
2019-05-29T21:22:13.844Z,96.20
2019-05-29T21:24:49.352Z,96.30
2019-05-29T21:27:13.684Z,96.30
2019-05-29T21:29:43.407Z,96.40
2019-05-29T21:32:12.627Z,96.40
2019-05-29T21:34:41.936Z,96.60
2019-05-29T21:37:11.204Z,96.70
2019-05-29T21:39:40.304Z,96.90
2019-05-29T21:42:09.423Z,97.10
2019-05-29T21:44:38.665Z,97.10
2019-05-29T21:47:07.823Z,97.40
2019-05-29T21:49:37.257Z,97.50
2019-05-29T21:52:06.407Z,97.80
2019-05-29T21:54:37.218Z,98.10
2019-05-29T21:57:06.480Z,98.30
2019-05-29T21:59:35.472Z,98.30
2019-05-29T22:02:05.505Z,98.20
2019-05-29T22:04:35.216Z,98.30
2019-05-29T22:07:04.452Z,98.60
2019-05-29T22:09:33.345Z,98.80
2019-05-29T22:12:02.384Z,98.90
2019-05-29T22:14:31.475Z,98.90
2019-05-29T22:17:01.276Z,99.00
2019-05-29T22:19:30.857Z,99.20
2019-05-29T22:21:59.838Z,99.40
2019-05-29T22:24:28.784Z,99.40
2019-05-29T22:26:57.758Z,99.40
2019-05-29T22:29:26.733Z,99.50
2019-05-29T22:31:55.909Z,99.60
2019-05-29T22:34:24.812Z,99.80
2019-05-29T22:36:53.933Z,99.90
2019-05-29T22:39:22.984Z,99.90
2019-05-29T22:41:51.953Z,99.90
2019-05-29T22:44:20.925Z,99.90
2019-05-29T22:46:49.901Z,99.90
2019-05-29T22:49:18.796Z,99.90
2019-05-29T22:51:47.752Z,99.90
2019-05-29T22:54:16.768Z,99.90
2019-05-29T22:56:45.741Z,99.90
2019-05-29T22:59:29.111Z,99.90
2019-05-29T23:01:45.414Z,99.90
2019-05-29T23:04:14.669Z,99.90
2019-05-29T23:06:43.621Z,99.90
2019-05-29T23:09:12.767Z,99.90
2019-05-29T23:11:41.741Z,99.90
2019-05-29T23:14:10.790Z,99.90
2019-05-29T23:16:40.127Z,99.90
2019-05-29T23:19:09.569Z,99.90
2019-05-29T23:21:38.657Z,99.90
2019-05-29T23:24:07.782Z,99.90
2019-05-29T23:26:36.789Z,99.90
2019-05-29T23:29:05.980Z,99.90
2019-05-29T23:31:35.082Z,99.90
2019-05-29T23:34:04.201Z,99.90
2019-05-29T23:36:33.246Z,99.90
2019-05-29T23:39:03.392Z,99.90
2019-05-29T23:41:32.582Z,99.90
2019-05-29T23:44:01.677Z,99.90
2019-05-29T23:46:30.774Z,99.90
2019-05-29T23:48:59.800Z,99.90
2019-05-29T23:51:28.773Z,99.90
2019-05-29T23:53:57.770Z,99.90
2019-05-29T23:56:27.026Z,99.90
2019-05-29T23:58:56.230Z,99.90
